createdAt,value
2023-03-08T00:01:01.516Z,96345.17
2023-03-08T00:04:03.539Z,96349.37
2023-03-08T00:07:05.462Z,96356.38
2023-03-08T00:10:08.416Z,96353.11
2023-03-08T00:13:10.430Z,96356.26
2023-03-08T00:16:13.223Z,96362.02
2023-03-08T00:19:15.161Z,96359.08
2023-03-08T00:22:16.966Z,96361.74
2023-03-08T00:25:18.837Z,96363.45
2023-03-08T00:28:20.762Z,96361.64
2023-03-08T00:31:22.747Z,96360.78
2023-03-08T00:34:27.090Z,96363.81
2023-03-08T00:37:28.898Z,96358.44
2023-03-08T00:40:30.792Z,96362.33
2023-03-08T00:43:33.209Z,96359.52
2023-03-08T00:46:38.213Z,96363.49
2023-03-08T00:49:41.762Z,96358.42
2023-03-08T00:52:43.611Z,96360.92
2023-03-08T00:55:56.704Z,96361.08
2023-03-08T00:58:58.701Z,96362.64
2023-03-08T01:02:01.089Z,96358.82
2023-03-08T01:05:03.254Z,96357.34
2023-03-08T01:08:05.164Z,96361.00
2023-03-08T01:11:13.892Z,96360.30
2023-03-08T01:14:15.784Z,96359.43
2023-03-08T01:17:18.087Z,96358.42
2023-03-08T01:20:20.128Z,96353.30
2023-03-08T01:23:21.985Z,96351.84
2023-03-08T01:26:26.154Z,96350.28
2023-03-08T01:29:30.929Z,96346.84
2023-03-08T01:32:33.788Z,96350.90
2023-03-08T01:35:37.653Z,96344.84
2023-03-08T01:38:39.661Z,96340.41
2023-03-08T01:41:41.561Z,96336.44
2023-03-08T01:44:51.466Z,96335.73
2023-03-08T01:47:53.552Z,96337.31
2023-03-08T01:51:02.884Z,96339.20
2023-03-08T01:54:11.056Z,96340.23
2023-03-08T01:57:26.678Z,96336.19
2023-03-08T02:00:28.548Z,96344.08
2023-03-08T02:03:30.438Z,96347.58
2023-03-08T02:06:32.543Z,96344.57
2023-03-08T02:09:34.401Z,96347.45
2023-03-08T02:12:37.474Z,96341.34
2023-03-08T02:15:39.440Z,96342.58
2023-03-08T02:19:10.200Z,96344.77
2023-03-08T02:22:14.656Z,96350.71
2023-03-08T02:25:22.117Z,96354.00
2023-03-08T02:28:26.018Z,96366.54
2023-03-08T02:31:27.805Z,96362.99
2023-03-08T02:34:29.695Z,96368.89
2023-03-08T02:37:33.264Z,96377.16
2023-03-08T02:40:36.603Z,96380.83
2023-03-08T02:43:38.447Z,96389.08
2023-03-08T02:46:41.242Z,96387.52
2023-03-08T02:49:43.097Z,96391.34
2023-03-08T02:52:44.999Z,96404.39
2023-03-08T02:55:46.911Z,96409.61
2023-03-08T02:58:48.744Z,96416.08
2023-03-08T03:01:50.627Z,96423.11
2023-03-08T03:04:52.486Z,96424.45
2023-03-08T03:07:56.190Z,96419.80
2023-03-08T03:10:59.627Z,96421.91
2023-03-08T03:14:01.758Z,96430.71
2023-03-08T03:17:07.909Z,96429.00
2023-03-08T03:20:10.831Z,96434.63
2023-03-08T03:23:12.701Z,96436.35
2023-03-08T03:26:22.006Z,96439.55
2023-03-08T03:29:25.623Z,96436.66
2023-03-08T03:32:32.660Z,96443.44
2023-03-08T03:35:38.259Z,96439.93
2023-03-08T03:38:40.643Z,96441.56
2023-03-08T03:41:42.804Z,96447.15
2023-03-08T03:44:46.948Z,96446.48
2023-03-08T03:47:51.779Z,96451.48
2023-03-08T03:51:01.330Z,96458.40
2023-03-08T03:54:03.573Z,96462.31
2023-03-08T03:57:05.668Z,96465.73
2023-03-08T04:00:11.217Z,96471.27
2023-03-08T04:03:15.504Z,96473.84
2023-03-08T04:06:18.762Z,96468.78
2023-03-08T04:09:21.083Z,96464.27
2023-03-08T04:12:28.617Z,96459.38
2023-03-08T04:15:30.702Z,96471.12
2023-03-08T04:18:33.595Z,96479.67
2023-03-08T04:21:35.709Z,96480.85
2023-03-08T04:24:37.736Z,96474.08
2023-03-08T04:27:44.032Z,96472.14
2023-03-08T04:30:46.681Z,96472.98
2023-03-08T04:33:50.797Z,96477.72
2023-03-08T04:36:52.906Z,96480.45
2023-03-08T04:39:56.128Z,96485.90
2023-03-08T04:42:58.363Z,96485.04
2023-03-08T04:46:05.654Z,96484.48
2023-03-08T04:49:08.006Z,96492.27
2023-03-08T04:52:13.753Z,96496.32
2023-03-08T04:55:15.933Z,96493.21
2023-03-08T04:58:18.677Z,96495.02
2023-03-08T05:01:22.831Z,96499.84
2023-03-08T05:04:25.094Z,96500.39
2023-03-08T05:07:27.201Z,96507.30
2023-03-08T05:10:30.073Z,96506.33
2023-03-08T05:13:33.198Z,96513.39
2023-03-08T05:16:35.234Z,96513.16
2023-03-08T05:19:37.787Z,96522.73
2023-03-08T05:22:56.698Z,96527.55
2023-03-08T05:26:04.079Z,96530.52
2023-03-08T05:29:06.258Z,96534.17
2023-03-08T05:32:12.409Z,96533.63
2023-03-08T05:35:15.183Z,96533.00
2023-03-08T05:38:17.375Z,96536.80
2023-03-08T05:41:20.760Z,96546.98
2023-03-08T05:44:23.678Z,96553.22
2023-03-08T05:47:26.468Z,96556.65
2023-03-08T05:50:28.362Z,96565.77
2023-03-08T05:53:30.333Z,96564.98
2023-03-08T05:56:32.322Z,96565.63
2023-03-08T05:59:39.588Z,96561.84
2023-03-08T06:02:42.934Z,96571.06
2023-03-08T06:05:45.376Z,96583.16
2023-03-08T06:08:48.087Z,96586.55
2023-03-08T06:11:50.243Z,96593.41
2023-03-08T06:14:53.607Z,96595.67
2023-03-08T06:17:56.949Z,96603.31
2023-03-08T06:21:03.947Z,96613.06
2023-03-08T06:24:06.423Z,96613.70
2023-03-08T06:27:08.448Z,96617.69
2023-03-08T06:30:11.707Z,96618.63
2023-03-08T06:33:13.898Z,96631.39
2023-03-08T06:36:20.336Z,96638.02
2023-03-08T06:39:23.941Z,96649.55
2023-03-08T06:42:39.858Z,96644.27
2023-03-08T06:45:42.974Z,96637.27
2023-03-08T06:48:46.405Z,96643.19
2023-03-08T06:51:49.683Z,96657.74
2023-03-08T06:54:51.592Z,96658.05
2023-03-08T06:57:55.078Z,96658.77
2023-03-08T07:00:59.282Z,96668.48
2023-03-08T07:04:01.214Z,96669.66
2023-03-08T07:07:03.778Z,96677.45
2023-03-08T07:10:06.348Z,96678.15
2023-03-08T07:13:08.273Z,96680.95
2023-03-08T07:16:12.942Z,96685.69
2023-03-08T07:19:15.087Z,96686.16
2023-03-08T07:22:16.886Z,96686.17
2023-03-08T07:25:20.112Z,96686.11
2023-03-08T07:28:22.309Z,96698.00
2023-03-08T07:31:25.949Z,96704.68
2023-03-08T07:34:27.827Z,96706.32
2023-03-08T07:37:29.716Z,96713.70
2023-03-08T07:40:31.548Z,96719.61
2023-03-08T07:43:33.471Z,96719.45
2023-03-08T07:46:45.196Z,96724.13
2023-03-08T07:49:47.321Z,96732.83
2023-03-08T07:52:49.136Z,96736.95
2023-03-08T07:55:51.000Z,96737.02
2023-03-08T07:58:55.565Z,96745.80
2023-03-08T08:01:58.129Z,96746.20
2023-03-08T08:05:00.714Z,96744.80
2023-03-08T08:08:03.060Z,96740.60
2023-03-08T08:11:14.047Z,96745.73
2023-03-08T08:14:15.966Z,96751.79
2023-03-08T08:17:19.238Z,96752.34
2023-03-08T08:20:21.216Z,96747.77
2023-03-08T08:23:23.143Z,96747.76
2023-03-08T08:26:25.476Z,96749.30
2023-03-08T08:29:27.332Z,96747.27
2023-03-08T08:32:29.810Z,96741.52
2023-03-08T08:35:42.646Z,96739.41
2023-03-08T08:38:45.718Z,96733.67
2023-03-08T08:41:50.584Z,96729.02
2023-03-08T08:44:53.184Z,96728.01
2023-03-08T08:47:55.053Z,96732.19
2023-03-08T08:50:58.221Z,96737.26
2023-03-08T08:54:00.170Z,96730.96
2023-03-08T08:57:02.095Z,96729.65
2023-03-08T09:00:08.057Z,96730.41
2023-03-08T09:03:11.128Z,96745.56
2023-03-08T09:06:14.684Z,96745.19
2023-03-08T09:09:17.572Z,96749.22
2023-03-08T09:12:20.473Z,96741.83
2023-03-08T09:15:22.553Z,96736.09
2023-03-08T09:18:24.942Z,96731.50
2023-03-08T09:21:27.691Z,96734.06
2023-03-08T09:24:29.749Z,96722.34
2023-03-08T09:27:32.412Z,96725.83
2023-03-08T09:30:34.301Z,96734.42
2023-03-08T09:33:36.240Z,96740.59
2023-03-08T09:36:41.374Z,96738.46
2023-03-08T09:39:44.143Z,96735.20
2023-03-08T09:42:46.442Z,96745.31
2023-03-08T09:45:51.840Z,96744.98
2023-03-08T09:49:00.311Z,96737.92
2023-03-08T09:52:22.477Z,96750.88
2023-03-08T09:55:31.244Z,96745.96
2023-03-08T09:58:50.895Z,96747.21
2023-03-08T10:01:58.724Z,96748.77
2023-03-08T10:05:34.471Z,96747.23
2023-03-08T10:08:55.685Z,96741.29
2023-03-08T10:12:13.402Z,96727.45
2023-03-08T10:15:19.939Z,96709.17
2023-03-08T10:18:30.263Z,96712.65
2023-03-08T10:21:36.638Z,96702.33
2023-03-08T10:25:04.265Z,96696.05
2023-03-08T10:28:13.519Z,96690.82
2023-03-08T10:31:33.170Z,96682.36
2023-03-08T10:34:35.202Z,96670.86
2023-03-08T10:37:37.274Z,96667.06
2023-03-08T10:40:39.273Z,96662.03
2023-03-08T10:43:46.818Z,96667.84
2023-03-08T10:46:49.891Z,96660.18
2023-03-08T10:50:05.412Z,96664.39
2023-03-08T10:53:19.798Z,96667.23
2023-03-08T10:56:38.044Z,96673.23
2023-03-08T10:59:40.774Z,96677.00
2023-03-08T11:02:42.724Z,96679.78
2023-03-08T11:06:14.904Z,96680.18
2023-03-08T11:09:43.124Z,96674.48
2023-03-08T11:12:45.348Z,96664.96
2023-03-08T11:16:04.497Z,96659.97
2023-03-08T11:19:25.895Z,96646.71
2023-03-08T11:26:24.116Z,96633.60
2023-03-08T11:29:36.041Z,96626.08
2023-03-08T11:32:49.768Z,96627.30
2023-03-08T11:36:04.851Z,96618.15
2023-03-08T11:39:19.363Z,96613.19
2023-03-08T11:42:40.850Z,96606.35
2023-03-08T11:46:22.206Z,96601.16
2023-03-08T11:49:32.447Z,96609.41
2023-03-08T11:52:51.240Z,96611.55
2023-03-08T11:56:27.118Z,96600.24
2023-03-08T11:59:31.687Z,96587.05
2023-03-08T12:02:38.195Z,96579.82
2023-03-08T12:06:00.834Z,96575.39
2023-03-08T12:09:27.704Z,96563.98
2023-03-08T12:12:48.220Z,96555.86
2023-03-08T12:16:08.564Z,96550.70
2023-03-08T12:19:29.553Z,96546.73
2023-03-08T12:22:47.336Z,96541.52
2023-03-08T12:26:03.300Z,96534.15
2023-03-08T12:29:24.425Z,96531.11
2023-03-08T12:32:27.414Z,96532.64
2023-03-08T12:35:34.988Z,96532.60
2023-03-08T12:38:45.013Z,96523.13
2023-03-08T12:42:00.896Z,96522.81
2023-03-08T12:45:27.646Z,96519.54
2023-03-08T12:48:31.231Z,96519.50
2023-03-08T12:51:33.483Z,96514.05
2023-03-08T12:54:35.710Z,96508.53
2023-03-08T12:57:55.092Z,96500.81
2023-03-08T13:01:03.181Z,96498.13
2023-03-08T13:04:39.090Z,96495.73
2023-03-08T13:08:09.442Z,96490.33
2023-03-08T13:11:15.533Z,96485.81
2023-03-08T13:14:38.467Z,96483.23
2023-03-08T13:17:48.095Z,96485.73
2023-03-08T13:21:01.584Z,96483.21
2023-03-08T13:24:09.918Z,96475.79
2023-03-08T13:27:40.512Z,96477.70
2023-03-08T13:30:53.084Z,96471.44
2023-03-08T13:33:58.669Z,96458.77
2023-03-08T13:37:01.362Z,96457.41
2023-03-08T13:40:07.227Z,96454.10
2023-03-08T13:43:16.412Z,96449.75
2023-03-08T13:46:19.215Z,96441.92
2023-03-08T13:49:28.390Z,96434.42
2023-03-08T13:52:35.072Z,96428.54
2023-03-08T13:55:44.057Z,96427.88
2023-03-08T13:58:49.253Z,96424.00
2023-03-08T14:01:53.207Z,96417.55
2023-03-08T14:04:56.200Z,96421.36
2023-03-08T14:08:02.835Z,96411.88
2023-03-08T14:11:12.605Z,96404.60
2023-03-08T14:14:24.196Z,96397.39
2023-03-08T14:17:28.879Z,96398.23
2023-03-08T14:20:31.375Z,96392.01
2023-03-08T14:23:47.144Z,96393.64
2023-03-08T14:26:59.830Z,96390.73
2023-03-08T14:30:11.993Z,96381.77
2023-03-08T14:33:13.903Z,96379.33
2023-03-08T14:36:16.012Z,96371.78
2023-03-08T14:39:18.866Z,96359.37
2023-03-08T14:42:26.997Z,96351.41
2023-03-08T14:45:53.147Z,96345.83
2023-03-08T14:49:04.384Z,96346.10
2023-03-08T14:52:19.693Z,96347.38
2023-03-08T14:55:27.888Z,96341.80
2023-03-08T14:58:31.950Z,96343.70
2023-03-08T15:01:36.833Z,96348.71
2023-03-08T15:04:39.331Z,96333.58
2023-03-08T15:07:42.511Z,96334.37
2023-03-08T15:24:17.017Z,96335.61
2023-03-08T15:27:19.222Z,96346.33
2023-03-08T15:30:24.418Z,96345.25
2023-03-08T15:33:26.494Z,96343.02
2023-03-08T15:36:31.866Z,96349.20
2023-03-08T15:39:33.829Z,96349.16
2023-03-08T15:42:35.757Z,96351.50
2023-03-08T15:45:37.874Z,96348.50
2023-03-08T15:48:40.066Z,96344.19
2023-03-08T15:51:41.987Z,96341.45
2023-03-08T15:54:47.074Z,96333.52
2023-03-08T15:57:49.837Z,96331.73
2023-03-08T16:00:52.259Z,96330.54
2023-03-08T16:03:56.083Z,96327.58
2023-03-08T16:06:58.018Z,96324.10
2023-03-08T16:10:00.732Z,96326.88
2023-03-08T16:13:02.630Z,96337.01
2023-03-08T16:16:05.662Z,96336.80
2023-03-08T16:19:07.502Z,96337.70
2023-03-08T16:22:10.219Z,96340.50
2023-03-08T16:25:13.436Z,96345.09
2023-03-08T16:28:15.421Z,96344.85
2023-03-08T16:31:20.395Z,96346.34
2023-03-08T16:34:22.260Z,96345.52
2023-03-08T16:37:24.856Z,96351.77
2023-03-08T16:40:30.469Z,96348.11
2023-03-08T16:43:45.592Z,96346.85
2023-03-08T16:46:48.969Z,96352.00
2023-03-08T16:49:50.995Z,96353.96
2023-03-08T16:52:57.392Z,96353.36
2023-03-08T16:55:59.238Z,96347.88
2023-03-08T16:59:04.229Z,96347.78
2023-03-08T17:02:12.556Z,96347.68
2023-03-08T17:05:15.018Z,96345.56
2023-03-08T17:08:17.092Z,96339.67
2023-03-08T17:11:21.941Z,96331.38
2023-03-08T17:14:24.040Z,96323.27
2023-03-08T17:17:28.805Z,96323.14
2023-03-08T17:20:32.194Z,96318.92
2023-03-08T17:23:36.848Z,96316.66
2023-03-08T17:26:45.740Z,96312.29
2023-03-08T17:29:48.156Z,96304.48
2023-03-08T17:32:50.682Z,96296.45
2023-03-08T17:35:53.573Z,96280.24
2023-03-08T17:38:56.020Z,96276.59
2023-03-08T17:41:57.801Z,96273.54
2023-03-08T17:45:00.269Z,96273.95
2023-03-08T17:48:03.193Z,96278.63
2023-03-08T17:51:07.496Z,96277.20
2023-03-08T17:54:11.097Z,96263.44
2023-03-08T17:57:13.315Z,96266.95
2023-03-08T18:00:15.586Z,96259.45
2023-03-08T18:03:17.350Z,96250.70
2023-03-08T18:06:24.282Z,96239.04
2023-03-08T18:09:29.091Z,96223.23
2023-03-08T18:12:31.523Z,96219.11
2023-03-08T18:15:33.347Z,96214.29
2023-03-08T18:18:35.420Z,96210.77
2023-03-08T18:21:40.003Z,96206.27
2023-03-08T18:24:42.984Z,96198.88
2023-03-08T18:27:45.089Z,96202.39
2023-03-08T18:30:48.267Z,96199.27
2023-03-08T18:33:50.272Z,96192.05
2023-03-08T18:36:52.209Z,96191.19
2023-03-08T18:39:54.501Z,96186.98
2023-03-08T18:42:56.560Z,96178.09
2023-03-08T18:45:58.462Z,96178.48
2023-03-08T18:49:04.561Z,96177.08
2023-03-08T18:52:06.813Z,96175.06
2023-03-08T18:55:09.154Z,96164.68
2023-03-08T18:58:10.938Z,96158.17
2023-03-08T19:01:16.128Z,96155.63
2023-03-08T19:04:18.187Z,96147.77
2023-03-08T19:07:20.073Z,96141.58
2023-03-08T19:10:21.887Z,96136.17
2023-03-08T19:13:23.847Z,96134.76
2023-03-08T19:16:28.687Z,96123.84
2023-03-08T19:19:30.774Z,96111.48
2023-03-08T19:22:32.903Z,96104.64
2023-03-08T19:25:59.273Z,96095.52
2023-03-08T19:29:04.178Z,96090.14
2023-03-08T19:32:07.400Z,96087.54
2023-03-08T19:35:09.634Z,96090.44
2023-03-08T19:38:11.387Z,96094.48
2023-03-08T19:41:13.379Z,96101.07
2023-03-08T19:44:15.328Z,96098.36
2023-03-08T19:47:19.356Z,96091.35
2023-03-08T19:50:21.150Z,96083.61
2023-03-08T19:53:23.072Z,96078.84
2023-03-08T19:56:25.786Z,96078.08
2023-03-08T19:59:27.702Z,96078.94
2023-03-08T20:02:29.506Z,96079.35
2023-03-08T20:05:31.591Z,96074.90
2023-03-08T20:08:35.467Z,96078.23
2023-03-08T20:11:37.514Z,96072.08
2023-03-08T20:14:39.368Z,96071.85
2023-03-08T20:17:41.154Z,96071.99
2023-03-08T20:20:44.280Z,96065.66
2023-03-08T20:23:47.478Z,96056.77
2023-03-08T20:26:49.632Z,96052.51
2023-03-08T20:29:52.083Z,96057.05
2023-03-08T20:32:54.566Z,96048.98
2023-03-08T20:36:00.414Z,96049.54
2023-03-08T20:39:03.242Z,96051.11
2023-03-08T20:42:05.186Z,96045.55
2023-03-08T20:45:07.468Z,96047.02
2023-03-08T20:48:09.392Z,96047.41
2023-03-08T20:51:14.111Z,96048.56
2023-03-08T20:54:17.199Z,96047.13
2023-03-08T20:57:19.054Z,96044.35
2023-03-08T21:00:24.503Z,96041.50
2023-03-08T21:03:26.917Z,96036.23
2023-03-08T21:06:31.041Z,96038.35
2023-03-08T21:09:33.523Z,96037.19
2023-03-08T21:12:36.345Z,96028.10
2023-03-08T21:15:39.577Z,96028.23
2023-03-08T21:18:45.363Z,96030.91
2023-03-08T21:21:47.190Z,96028.98
2023-03-08T21:24:49.020Z,96027.39
2023-03-08T21:27:50.821Z,96032.85
2023-03-08T21:30:52.667Z,96026.16
2023-03-08T21:33:55.013Z,96022.57
2023-03-08T21:36:56.723Z,96019.84
2023-03-08T21:39:58.498Z,96018.05
2023-03-08T21:43:00.273Z,96017.83
2023-03-08T21:46:04.068Z,96013.09
2023-03-08T21:49:06.913Z,96017.25
2023-03-08T21:52:09.395Z,96013.38
2023-03-08T21:55:11.262Z,96009.59
2023-03-08T21:58:13.160Z,96012.27
2023-03-08T22:01:27.334Z,96010.69
2023-03-08T22:04:29.284Z,96009.65
2023-03-08T22:07:31.085Z,96006.91
2023-03-08T22:10:32.893Z,96008.59
2023-03-08T22:13:35.153Z,96008.98
2023-03-08T22:16:37.280Z,96007.64
2023-03-08T22:19:39.142Z,96007.35
2023-03-08T22:22:41.041Z,96004.75
2023-03-08T22:25:42.812Z,95999.08
2023-03-08T22:28:45.166Z,95995.92
2023-03-08T22:31:46.924Z,95992.47
2023-03-08T22:34:48.762Z,95985.20
2023-03-08T22:37:50.655Z,95983.39
2023-03-08T22:40:52.551Z,95982.77
2023-03-08T22:43:54.902Z,95979.22
2023-03-08T22:46:56.558Z,95981.08
2023-03-08T22:49:58.464Z,95983.89
2023-03-08T22:53:00.299Z,95982.69
2023-03-08T22:56:02.122Z,95981.55
2023-03-08T22:59:03.896Z,95977.92
2023-03-08T23:02:06.251Z,95977.37
2023-03-08T23:05:10.627Z,95978.10
2023-03-08T23:08:12.534Z,95974.99
2023-03-08T23:11:14.729Z,95969.35
2023-03-08T23:14:16.652Z,95966.80
2023-03-08T23:17:18.397Z,95965.53
2023-03-08T23:20:21.805Z,95962.86
2023-03-08T23:23:24.399Z,95965.50
2023-03-08T23:26:27.870Z,95962.28
2023-03-08T23:29:30.010Z,95953.76
2023-03-08T23:32:32.236Z,95952.11
2023-03-08T23:35:34.058Z,95943.28
2023-03-08T23:38:36.042Z,95940.29
2023-03-08T23:41:38.785Z,95941.78
2023-03-08T23:44:40.669Z,95943.74
2023-03-08T23:47:42.497Z,95935.70
2023-03-08T23:50:44.248Z,95928.20
2023-03-08T23:53:51.761Z,95924.14
2023-03-08T23:56:53.556Z,95925.40
2023-03-08T23:59:55.361Z,95931.88
